Aérodrome :
LOGIN :

S'inscrire | Disclaimer

   EN    FR    IT 

 










Légende :    VFR   VFR Marginal   IFR   IFR Intensif   IFR Très Intensif
Visi : 
Plafond : 
>= 8 km
>= 3000ft
5 à 8 km
1000 à 3000 ft
1500m à 5 km
500 à 1000 ft
800 à 1500m
200 à 500 ft
< 800m
< 200 ft
Symboles :   Orages  Brouillard  Fortes neiges  Fortes précipitations  Vent > 20 kt
SIGMETs :   Divers  Orages  Givrage  Turbulence  Onde Orograph.  Cendres Volcan.







- Altitude de l'aérodrome : 1325 ft
- Code IATA : EBU
- Voir les cartes d'approche


LFMH - St-Etienne Boutheon

DERNIER METAR :
  • 260400Z AUTO 33005KT 300V360 9999 BKN007 OVC013 03/02 Q1008 NOSIG

METARs EXPIRÉS :
  • 260330Z AUTO 32005KT 280V350 9999 OVC005 03/03 Q1008 NOSIG
  • 260300Z AUTO 32005KT 280V350 9999 -RA OVC006 04/03 Q1008 NOSIG
  • 260230Z AUTO 34005KT 300V010 9999 OVC005 04/03 Q1008 NOSIG
  • 260200Z AUTO 34005KT 310V010 8000 -RA OVC005/// ///TCU 04/03 Q1008
  • 260130Z AUTO 32006KT 270V360 5000 -RA BR OVC005 04/03 Q1008

TAF TAF LFMH
Valide du 26 à 03h jusqu'au 27 à 03h UTC


260200Z 2603/2703 33005KT 5000 -RA BR OVC005
BECMG 2606/2609 NSW OVC015
BECMG 2609/2612 BKN025
TEMPO 2618/2701 -SHRA SCT013 BKN020TCU
ATIS : +33 4 77 36 17 51
Pas de NOTAMs connus pour ce terrain.



MET'MAP, la Météo Aéronautique d'un coup d'oeil ! - Copyright ORBIFLY Décembre 2007 - Disclaimer

ORBIFLY MET'MAP TEAM :

Programmation & Développement : Alexandra Zaïnal
Conception & Développement : Baudouin d'Aumeries
Co-Programmation & Développement : Marc-Olivier Méhu
Soutien technique & logistique : Manuel Goepfert

Contact : metmap@orbifly.com




SOURCES & CREDITS :

   NOAA